Latest Weather Observations for Mackay Airport

IDQ60801

Issued at 10:02 pm EST Saturday 28 February 2015 (issued every 30 minutes, with the page automatically refreshed every 10 minutes)

About weather observations | Map of weather stations | Latest weather observations for QLD | Other Formats
Station Details ID: 033045 Name: MACKAY AERO Lat: -21.17 Lon: 149.18 Height: 4.7 m
Data from the previous 72 hours. | See also: Recent months at Mackay Airport
Date/Time
EST
Temp
°C
App
Temp
°C
Dew
Point
Rel
Hum
%
Delta-T
°C
Wind Press
QNH
hPa
Press
MSL
hPa
Rain
since 9 am
mm
Dir
 
Spd
km/h
Gust
km/h
Spd
kts
Gust
kts
28/10:00pm 27.3 29.9 22.7 76 3.1 ENE 13 19 7 10 1009.8 1009.8 0.0
28/09:30pm 27.3 30.8 22.9 77 3.0 NNE 9 9 5 5 1009.7 1009.7 0.0
28/09:00pm 27.2 30.5 22.6 76 3.1 NE 9 13 5 7 1009.6 1009.6 0.0
28/08:30pm 27.4 30.7 22.6 75 3.2 NE 9 15 5 8 1009.6 1009.6 0.0
28/08:00pm 27.5 30.0 22.4 73 3.4 NE 13 19 7 10 1009.1 1009.1 0.0
28/07:30pm 27.6 30.4 22.3 73 3.6 NE 11 17 6 9 1008.6 1008.6 0.0
28/07:00pm 27.7 29.8 22.4 73 3.6 NE 15 20 8 11 1008.2 1008.2 0.0
28/06:30pm 27.7 29.4 22.4 73 3.6 ENE 17 22 9 12 1007.9 1007.9 0.0
28/06:00pm 28.3 30.1 22.5 71 3.9 ENE 17 22 9 12 1007.8 1007.8 0.0
28/05:30pm 28.5 29.4 22.0 68 4.4 ENE 20 26 11 14 1007.6 1007.6 0.0
28/05:00pm 29.2 30.5 22.7 68 4.4 ENE 20 26 11 14 1007.2 1007.2 0.0
28/04:30pm 29.3 29.7 21.8 64 5.0 ENE 22 32 12 17 1007.1 1007.1 0.0
28/04:00pm 29.5 29.6 21.2 61 5.6 ENE 22 28 12 15 1007.0 1007.0 0.0
28/03:30pm 29.7 30.4 21.6 61 5.4 E 20 28 11 15 1007.0 1007.0 0.0
28/03:00pm 30.0 30.4 22.4 63 5.2 ENE 24 28 13 15 1006.8 1006.8 0.0
28/02:30pm 29.9 30.2 22.3 63 5.2 ENE 24 30 13 16 1007.0 1007.0 0.0
28/02:00pm 30.0 29.9 21.4 60 5.8 ENE 24 32 13 17 1007.2 1007.2 0.0
28/01:30pm 29.7 29.4 21.1 60 5.7 ENE 24 28 13 15 1007.7 1007.7 0.0
28/01:00pm 29.7 30.0 21.6 61 5.4 E 22 28 12 15 1008.2 1008.2 0.0
28/12:30pm 29.6 30.6 22.1 64 5.1 E 20 26 11 14 1008.5 1008.5 0.0
28/12:00pm 29.5 30.3 21.7 63 5.3 E 20 26 11 14 1009.0 1009.0 0.0
28/11:30am 29.2 30.9 22.4 66 4.6 E 17 22 9 12 1009.0 1009.0 0.0
28/11:00am 29.7 31.6 22.7 66 4.8 E 17 20 9 11 1009.1 1009.1 0.0
28/10:30am 29.3 31.6 21.3 62 5.3 E 11 17 6 9 1009.2 1009.2 0.0
28/10:00am 29.4 31.4 20.8 60 5.7 ESE 11 17 6 9 1009.5 1009.5 0.0
28/09:30am 28.7 30.7 20.7 62 5.3 ESE 11 17 6 9 1009.4 1009.4 0.0
28/09:00am 28.3 32.0 22.5 71 3.9 SW 7 9 4 5 1009.4 1009.4 0.0
28/08:30am 27.4 31.0 22.3 73 3.4 SW 7 9 4 5 1009.2 1009.2 0.0
28/08:00am 26.3 29.4 22.8 81 2.4 SW 11 13 6 7 1009.1 1009.1 0.0
28/07:00am 23.9 27.5 22.3 91 1.1 N 7 9 4 5 1008.5 1008.5 0.0
28/06:30am 22.5 25.5 21.3 93 0.8 N 7 9 4 5 1008.2 1008.2 0.0
28/06:00am 22.5 25.2 21.3 93 0.8 N 9 9 5 5 1008.0 1008.0 0.0
28/05:30am 22.6 25.0 21.6 94 0.7 N 11 11 6 6 1007.7 1007.7 0.0
28/05:00am 22.4 25.7 21.4 94 0.7 N 6 7 3 4 1007.5 1007.5 0.0
28/04:30am 22.4 25.1 21.4 94 0.7 N 9 11 5 6 1007.6 1007.6 0.0
28/04:00am 22.9 26.2 21.5 92 0.9 N 6 7 3 4 1007.7 1007.7 0.0
28/03:30am 23.3 26.7 21.7 91 1.1 N 6 7 3 4 1007.4 1007.4 0.0
28/03:00am 23.2 26.7 21.8 92 0.9 N 6 7 3 4 1007.4 1007.4 0.0
28/02:30am 22.8 26.1 21.4 92 0.9 N 6 9 3 5 1007.6 1007.6 0.0
28/02:00am 23.1 26.5 21.7 92 0.9 N 6 7 3 4 1007.8 1007.8 0.0
28/01:30am 23.7 26.8 22.1 91 1.1 N 9 9 5 5 1008.2 1008.2 0.0
28/01:00am 23.8 27.3 21.9 89 1.3 N 6 7 3 4 1008.2 1008.2 0.0
28/12:30am 23.5 26.9 21.6 89 1.3 N 6 9 3 5 1008.4 1008.4 0.0
28/12:00am 23.9 27.0 21.4 86 1.7 N 7 9 4 5 1008.6 1008.6 0.0
 
Date/Time
EST
Temp
°C
App
Temp
°C
Dew
Point
Rel
Hum
%
Delta-T
°C
Wind Press
QNH
hPa
Press
MSL
hPa
Rain
since 9 am
mm
Dir
 
Spd
km/h
Gust
km/h
Spd
kts
Gust
kts
27/11:30pm 24.1 28.0 21.8 87 1.5 N 4 6 2 3 1008.7 1008.7 0.0
27/11:00pm 24.5 27.2 21.4 83 2.1 N 9 9 5 5 1008.7 1008.7 0.0
27/10:30pm 25.1 28.4 21.4 80 2.4 N 6 7 3 4 1008.9 1008.9 0.0
27/10:00pm 25.4 29.9 21.5 79 2.6 CALM 0 2 0 1 1008.6 1008.6 0.0
27/09:30pm 26.1 28.9 21.5 76 3.1 N 9 11 5 6 1008.4 1008.4 0.0
27/09:00pm 26.7 29.6 21.7 74 3.3 NNE 9 13 5 7 1008.2 1008.2 0.0
27/08:30pm 26.9 28.9 21.6 72 3.5 NNE 13 19 7 10 1007.8 1007.8 0.0
27/08:00pm 27.0 29.6 22.0 74 3.4 NNE 11 13 6 7 1007.6 1007.6 0.0
27/07:30pm 27.2 29.4 21.9 73 3.6 NNE 13 17 7 9 1006.9 1006.9 0.0
27/07:00pm 27.4 28.8 21.9 72 3.7 NE 17 20 9 11 1006.8 1006.8 0.0
27/06:30pm 27.5 29.8 22.0 72 3.7 NE 13 20 7 11 1006.4 1006.4 0.0
27/06:00pm 27.9 28.7 21.4 67 4.3 NE 19 24 10 13 1006.4 1006.4 0.0
27/05:30pm 28.5 30.3 22.5 70 4.1 ENE 17 24 9 13 1006.3 1006.3 0.0
27/05:00pm 28.8 29.2 21.8 66 4.7 ENE 22 30 12 16 1005.6 1005.6 0.0
27/04:30pm 29.0 29.1 21.2 62 5.2 ENE 22 28 12 15 1005.7 1005.7 0.0
27/04:00pm 29.4 30.0 22.1 65 4.9 NE 22 28 12 15 1005.6 1005.6 0.0
27/03:30pm 29.3 29.6 22.3 66 4.7 ENE 24 30 13 16 1005.8 1005.8 0.0
27/03:00pm 30.0 30.8 22.4 63 5.2 ENE 22 28 12 15 1005.9 1005.9 0.0
27/02:30pm 29.2 30.3 22.4 66 4.6 E 20 26 11 14 1006.2 1006.2 0.0
27/02:00pm 29.8 31.4 23.3 68 4.5 E 20 24 11 13 1006.3 1006.3 0.0
27/01:30pm 29.8 30.6 22.5 65 5.0 E 22 30 12 16 1006.4 1006.4 0.0
27/01:00pm 29.9 30.0 21.8 62 5.5 ENE 24 30 13 16 1006.7 1006.7 0.0
27/12:30pm 29.7 30.0 21.6 61 5.4 E 22 28 12 15 1007.3 1007.3 0.0
27/12:00pm 30.0 30.3 20.8 57 6.1 ENE 20 24 11 13 1007.6 1007.6 0.0
27/11:30am 29.8 29.6 18.6 51 7.2 E 17 20 9 11 1007.9 1007.9 0.0
27/11:00am 29.8 30.5 20.4 57 6.2 E 17 20 9 11 1008.1 1008.1 0.0
27/10:30am 29.9 31.8 21.3 60 5.8 E 13 19 7 10 1008.1 1008.1 0.0
27/10:00am 29.3 31.3 20.7 59 5.7 SE 11 17 6 9 1008.4 1008.4 0.0
27/09:30am 28.4 31.2 20.9 64 5.0 N 7 11 4 6 1008.6 1008.6 0.0
27/09:00am 28.7 32.1 21.7 66 4.7 W 6 9 3 5 1008.7 1008.7 0.0
27/08:30am 27.9 32.5 22.4 72 3.7 W 2 7 1 4 1008.4 1008.4 0.0
27/08:00am 26.7 31.3 23.2 81 2.4 WSW 4 7 2 4 1008.3 1008.3 0.0
27/07:30am 25.0 28.6 22.3 85 1.8 SW 7 9 4 5 1008.2 1008.2 0.0
27/07:00am 24.0 27.6 22.4 91 1.1 WSW 7 9 4 5 1008.0 1008.0 0.0
27/06:30am 22.9 25.9 21.9 94 0.7 WSW 9 11 5 6 1007.7 1007.7 0.0
27/06:00am 22.3 25.3 21.3 94 0.7 WSW 7 7 4 4 1007.3 1007.3 0.0
27/05:30am 22.1 24.5 20.9 93 0.8 WSW 9 9 5 5 1007.0 1007.0 0.0
27/05:00am 22.7 25.5 21.5 93 0.8 WSW 9 11 5 6 1006.7 1006.7 0.0
27/04:30am 22.8 25.6 21.6 93 0.8 WSW 9 11 5 6 1006.5 1006.5 0.0
27/04:00am 22.4 24.9 21.0 92 0.9 SW 9 11 5 6 1006.4 1006.4 0.0
27/03:30am 23.1 27.7 21.7 92 0.9 CALM 0 6 0 3 1006.4 1006.4 0.0
27/03:00am 23.2 27.7 21.6 91 1.1 CALM 0 0 0 0 1006.6 1006.6 0.0
27/02:30am 23.3 26.3 21.2 88 1.4 W 7 9 4 5 1006.9 1006.9 0.0
27/02:00am 23.5 27.4 21.2 87 1.5 W 2 9 1 5 1007.2 1007.2 0.0
27/01:30am 24.2 28.5 21.9 87 1.5 W 2 6 1 3 1007.4 1007.4 0.0
27/01:00am 24.6 27.6 21.9 85 1.8 W 9 15 5 8 1007.8 1007.8 0.0
27/12:30am 25.1 28.1 22.0 83 2.1 W 9 11 5 6 1008.0 1008.0 0.0
27/12:00am 26.8 29.7 22.4 77 3.0 NE 11 15 6 8 1008.2 1008.2 0.0
 
Date/Time
EST
Temp
°C
App
Temp
°C
Dew
Point
Rel
Hum
%
Delta-T
°C
Wind Press
QNH
hPa
Press
MSL
hPa
Rain
since 9 am
mm
Dir
 
Spd
km/h
Gust
km/h
Spd
kts
Gust
kts
26/11:30pm 26.8 29.9 22.2 76 3.1 ENE 9 13 5 7 1008.5 1008.5 0.0
26/11:00pm 27.1 29.6 22.5 76 3.1 ENE 13 19 7 10 1008.4 1008.4 0.0
26/10:30pm 26.9 28.8 22.7 78 2.8 ENE 17 20 9 11 1008.4 1008.4 0.0
26/10:00pm 26.9 29.0 22.5 77 3.0 E 15 19 8 10 1008.3 1008.3 0.0
26/09:30pm 27.0 29.1 22.4 76 3.1 ENE 15 19 8 10 1008.1 1008.1 0.0
26/09:00pm 27.0 29.0 22.2 75 3.2 E 15 20 8 11 1007.9 1007.9 0.0
26/08:30pm 27.2 29.7 22.4 75 3.2 ENE 13 17 7 9 1007.7 1007.7 0.0
26/08:00pm 27.1 28.9 21.8 73 3.6 ENE 15 19 8 10 1007.3 1007.3 0.0
26/07:30pm 27.4 29.3 21.4 70 4.0 ENE 13 15 7 8 1007.0 1007.0 0.0
26/07:00pm 27.3 29.0 21.6 71 3.8 E 15 20 8 11 1006.6 1006.6 0.0
26/06:30pm 27.6 29.2 21.4 69 4.1 ENE 15 19 8 10 1006.2 1006.2 0.0
26/06:00pm 28.0 29.4 21.8 69 4.2 ENE 17 22 9 12 1006.1 1006.1 0.0
26/05:30pm 28.2 29.1 21.5 67 4.5 E 19 24 10 13 1005.6 1005.6 0.0
26/05:00pm 28.8 29.5 21.6 65 4.8 E 20 26 11 14 1005.2 1005.2 0.0
26/04:30pm 29.0 29.8 22.5 68 4.4 ESE 22 26 12 14 1005.1 1005.1 0.0
26/04:00pm 29.0 29.7 22.2 66 4.6 E 22 28 12 15 1005.2 1005.2 0.0
26/03:30pm 29.1 29.5 21.8 64 4.9 E 22 28 12 15 1005.2 1005.2 0.0
26/03:00pm 29.2 29.7 21.9 64 4.9 E 22 28 12 15 1005.5 1005.5 0.0
26/02:30pm 29.4 30.0 22.1 65 4.9 ESE 22 32 12 17 1005.8 1005.8 0.0
26/02:00pm 29.6 30.4 23.1 68 4.5 E 24 28 13 15 1006.3 1006.3 0.0
26/01:30pm 29.4 29.8 22.4 66 4.7 ESE 24 30 13 16 1006.7 1006.7 0.0
26/01:00pm 29.7 30.4 22.9 67 4.7 E 24 30 13 16 1007.1 1007.1 0.0
26/12:30pm 29.8 30.3 23.3 68 4.5 ESE 26 32 14 17 1007.4 1007.4 0.0
26/12:00pm 29.3 29.9 22.8 68 4.4 ESE 24 30 13 16 1008.0 1008.0 0.0
26/11:30am 29.4 30.4 22.1 65 4.9 ESE 20 28 11 15 1008.4 1008.4 0.0
26/11:00am 29.7 30.8 22.4 65 5.0 ESE 20 28 11 15 1008.7 1008.7 0.0
26/10:30am 29.3 29.8 22.0 64 4.9 ESE 22 28 12 15 1008.9 1008.9 0.0
26/10:00am 29.3 30.4 22.3 66 4.7 ESE 20 26 11 14 1009.1 1009.1 0.0
26/09:30am 28.8 30.4 22.1 67 4.5 SE 17 20 9 11 1009.3 1009.3 0.0
26/09:00am 28.6 30.6 22.3 68 4.3 SE 15 22 8 12 1009.3 1009.3 0.0
26/08:30am 28.2 29.7 22.0 69 4.2 SSE 17 22 9 12 1009.4 1009.4 0.0
26/08:00am 27.6 29.7 22.5 74 3.5 S 15 19 8 10 1009.1 1009.1 0.0
26/07:30am 26.2 28.6 22.9 82 2.2 SSW 15 19 8 10 1009.1 1009.1 0.0
26/07:00am 25.0 28.1 22.9 88 1.4 SW 11 13 6 7 1008.9 1008.9 0.0
26/06:30am 24.4 27.7 22.5 89 1.3 SSW 9 11 5 6 1008.4 1008.4 0.0
26/06:00am 24.5 26.9 22.2 87 1.5 SW 13 17 7 9 1008.1 1008.1 0.0
26/05:30am 26.4 27.8 21.8 76 3.1 SE 17 22 9 12 1007.7 1007.7 0.0
26/05:00am 26.5 27.3 21.7 75 3.2 ESE 20 26 11 14 1007.5 1007.5 0.0
26/04:30am 26.6 27.1 22.0 76 3.1 ESE 22 28 12 15 1007.3 1007.3 0.0
26/04:00am 26.4 26.8 21.8 76 3.1 ESE 22 30 12 16 1007.1 1007.1 0.0
26/03:30am 26.4 26.8 21.8 76 3.1 SE 22 30 12 16 1007.4 1007.4 0.0
26/03:00am 26.8 27.7 22.6 78 2.8 ESE 22 33 12 18 1007.4 1007.4 0.0
26/02:30am 26.7 27.8 23.0 80 2.5 ESE 22 30 12 16 1007.3 1007.3 0.0
26/02:00am 26.5 27.4 22.6 79 2.6 ESE 22 26 12 14 1007.7 1007.7 0.0
26/01:30am 26.5 27.7 23.2 82 2.2 ESE 22 30 12 16 1008.0 1008.0 0.0
26/01:00am 26.3 28.7 23.0 82 2.2 SE 15 26 8 14 1008.3 1008.3 0.0
26/12:30am 25.2 28.7 22.9 87 1.6 S 9 13 5 7 1008.5 1008.5 0.0
26/12:00am 24.6 27.1 22.5 88 1.4 SSW 13 15 7 8 1008.8 1008.8 0.0
 
Date/Time
EST
Temp
°C
App
Temp
°C
Dew
Point
Rel
Hum
%
Delta-T
°C
Wind Press
QNH
hPa
Press
MSL
hPa
Rain
since 9 am
mm
Dir
 
Spd
km/h
Gust
km/h
Spd
kts
Gust
kts
25/11:30pm 25.8 28.1 22.1 80 2.5 SE 13 19 7 10 1008.7 1008.7 0.0
25/11:00pm 26.7 28.8 22.5 78 2.8 ESE 15 19 8 10 1008.8 1008.8 0.0
25/10:30pm 26.8 28.5 22.4 77 3.0 ESE 17 22 9 12 1008.9 1008.9 0.0

Other Formats:

Comma delimited format used in spreadsheet applications
http://www.bom.gov.au/fwo/IDQ60801/IDQ60801.95367.axf

JavaScript Object Notation format (JSON) in row-major order
http://www.bom.gov.au/fwo/IDQ60801/IDQ60801.95367.json